Time;durP1;ratioP1;P1;durP2;ratioP2;P2;SDS_P1;SDS_P2;PMS_P1;PMS_P2;Temp;Humidity;BMP_temperature;BMP_pressure;BME280_temperature;BME280_humidity;BME280_pressure;Samples;Min_cycle;Max_cycle;Signal;HPM_P1;HPM_P2
2021/08/05 00:01:02;;;;;;;34.08;26.05;;;;;;;13.93;92.73;101351.38;5058048;28;20025;-84
2021/08/05 00:03:28;;;;;;;32.65;25.13;;;;;;;13.89;92.82;101349.56;5057173;28;20050;-78
2021/08/05 00:05:53;;;;;;;35.47;26.70;;;;;;;13.88;92.68;101351.34;5053800;28;20036;-81
2021/08/05 00:08:19;;;;;;;34.92;26.88;;;;;;;13.87;93.00;101346.03;5046961;28;20075;-80
2021/08/05 00:10:44;;;;;;;40.30;29.88;;;;;;;13.82;93.12;101343.31;5056348;28;20120;-86
2021/08/05 00:13:10;;;;;;;40.15;29.02;;;;;;;13.77;93.07;101340.63;5056776;28;20142;-84
2021/08/05 00:15:35;;;;;;;35.55;27.77;;;;;;;13.74;93.09;101340.59;5056116;28;20114;-83
2021/08/05 00:18:01;;;;;;;40.70;29.23;;;;;;;13.71;93.45;101335.25;5056338;28;20029;-83
2021/08/05 00:20:26;;;;;;;39.60;28.92;;;;;;;13.68;93.60;101340.53;5057238;28;20047;-84
2021/08/05 00:22:52;;;;;;;41.70;29.00;;;;;;;13.65;93.88;101328.16;5057134;28;20363;-86
2021/08/05 00:25:18;;;;;;;42.75;27.90;;;;;;;13.62;93.74;101332.53;5055657;28;20031;-79
2021/08/05 00:27:43;;;;;;;46.00;29.10;;;;;;;13.60;93.86;101328.97;5057583;28;20031;-87
2021/08/05 00:30:29;;;;;;;42.78;29.55;;;;;;;13.64;93.44;101331.66;5057589;28;20391;-85
2021/08/05 00:32:55;;;;;;;38.90;27.45;;;;;;;13.63;93.30;101329.00;5056605;28;20514;-83
2021/08/05 00:35:20;;;;;;;36.85;25.52;;;;;;;13.61;93.57;101328.09;5057085;28;20025;-79
2021/08/05 00:38:06;;;;;;;39.45;27.70;;;;;;;13.60;93.63;101321.03;5057932;28;20028;-83
2021/08/05 00:40:52;;;;;;;36.05;26.77;;;;;;;13.57;93.57;101311.31;5043464;28;20033;-85
2021/08/05 00:43:21;;;;;;;37.22;26.33;;;;;;;13.53;93.53;101308.63;5058142;28;20082;-84
2021/08/05 00:45:47;;;;;;;41.40;27.80;;;;;;;13.47;93.88;101307.69;5057235;28;20017;-80
2021/08/05 00:48:32;;;;;;;37.58;27.88;;;;;;;13.45;93.91;101314.69;5057497;28;20356;-80
2021/08/05 00:50:58;;;;;;;34.95;24.45;;;;;;;13.43;93.57;101319.09;5057494;28;20360;-80
2021/08/05 00:53:25;;;;;;;40.30;27.27;;;;;;;13.38;93.65;101310.19;5056768;28;20027;-80
2021/08/05 00:55:51;;;;;;;42.05;29.35;;;;;;;13.37;93.71;101307.53;5057091;28;20494;-80
2021/08/05 00:58:17;;;;;;;42.30;28.35;;;;;;;13.35;94.02;101302.22;5057228;28;20021;-85
2021/08/05 01:01:08;;;;;;;40.58;29.50;;;;;;;13.34;94.05;101303.06;5056974;28;20063;-81
2021/08/05 01:03:38;;;;;;;47.10;31.20;;;;;;;13.32;94.29;101302.16;5055625;28;20037;-78
2021/08/05 01:06:18;;;;;;;41.30;28.13;;;;;;;13.29;94.40;101299.47;5052370;28;20037;-82
2021/08/05 01:08:50;;;;;;;35.97;25.70;;;;;;;13.27;93.92;101296.81;5036406;28;20060;-85
2021/08/05 01:11:43;;;;;;;45.00;30.40;;;;;;;13.20;94.06;101294.06;5036664;28;20030;-81
2021/08/05 01:14:39;;;;;;;44.65;30.40;;;;;;;13.13;94.34;101288.72;5037155;28;20511;-78
2021/08/05 01:17:25;;;;;;;40.72;28.15;;;;;;;13.12;93.72;101294.84;5056236;28;20037;-88
2021/08/05 01:19:56;;;;;;;37.25;26.25;;;;;;;13.18;93.07;101291.41;5057175;28;20032;-81
2021/08/05 01:22:59;;;;;;;37.80;26.92;;;;;;;13.16;93.73;101288.75;5055431;28;20082;-84
2021/08/05 01:26:05;;;;;;;35.95;25.80;;;;;;;13.13;93.87;101286.06;5036451;28;20045;-88
2021/08/05 01:28:37;;;;;;;41.33;27.92;;;;;;;13.10;93.94;101291.31;5035515;28;20029;-84
2021/08/05 01:31:24;;;;;;;40.25;27.45;;;;;;;13.08;93.87;101295.69;5056048;28;20025;-85
2021/08/05 01:33:51;;;;;;;39.60;27.77;;;;;;;13.09;94.31;101292.19;5057365;28;20029;-79
2021/08/05 01:36:18;;;;;;;42.90;29.52;;;;;;;13.07;94.21;101283.34;5062070;28;20069;-78
2021/08/05 01:38:46;;;;;;;42.95;28.90;;;;;;;13.04;94.35;101283.31;5061016;28;20028;-81
2021/08/05 01:41:12;;;;;;;39.80;27.45;;;;;;;13.02;94.35;101284.16;5057856;28;20100;-84
2021/08/05 01:43:39;;;;;;;36.97;25.80;;;;;;;12.97;94.33;101282.31;5057700;28;20052;-82
2021/08/05 01:46:06;;;;;;;35.70;26.52;;;;;;;12.93;94.07;101279.63;5057323;28;20425;-82
2021/08/05 01:49:11;;;;;;;37.63;26.27;;;;;;;12.89;94.17;101281.34;5057006;28;20052;-83
2021/08/05 01:51:39;;;;;;;39.80;26.98;;;;;;;12.85;94.49;101283.94;5057596;28;20034;-81
2021/08/05 01:54:07;;;;;;;50.20;31.23;;;;;;;12.84;94.47;101274.22;5057300;28;20021;-85
2021/08/05 01:56:33;;;;;;;44.67;29.77;;;;;;;12.81;94.80;101269.78;5055577;28;20079;-81
2021/08/05 01:58:59;;;;;;;43.38;30.95;;;;;;;12.79;94.71;101276.78;5055124;28;20127;-83
2021/08/05 02:01:26;;;;;;;40.63;28.40;;;;;;;12.75;94.73;101270.59;5055120;28;20537;-79
2021/08/05 02:04:18;;;;;;;46.72;30.88;;;;;;;12.72;94.95;101267.00;5053416;28;20547;-79
2021/08/05 02:07:01;;;;;;;46.53;29.92;;;;;;;12.70;95.01;101268.75;5054921;28;20032;-84
2021/08/05 02:10:01;;;;;;;45.97;32.20;;;;;;;12.68;94.91;101266.06;5053528;28;20047;-86
2021/08/05 02:12:58;;;;;;;46.42;30.02;;;;;;;12.66;95.08;101270.44;5055462;28;20035;-83
2021/08/05 02:15:44;;;;;;;43.90;29.42;;;;;;;12.65;94.99;101264.25;5055607;28;20031;-86
2021/08/05 02:18:30;;;;;;;45.40;30.00;;;;;;;12.64;95.21;101261.59;5035698;28;20101;-90
2021/08/05 02:21:16;;;;;;;45.30;30.40;;;;;;;12.61;95.25;101258.94;5041413;28;20112;-82
2021/08/05 02:24:01;;;;;;;48.55;31.00;;;;;;;12.59;94.83;101260.66;5055934;28;20128;-84
2021/08/05 02:26:47;;;;;;;44.15;28.08;;;;;;;12.55;95.31;101253.56;5055268;28;20033;-84
2021/08/05 02:29:15;;;;;;;51.17;32.35;;;;;;;12.51;94.83;101249.06;5054611;28;20029;-80
2021/08/05 02:31:40;;;;;;;51.20;32.40;;;;;;;12.50;95.27;101255.25;5055094;28;20029;-80
2021/08/05 02:34:07;;;;;;;45.83;31.10;;;;;;;12.46;95.12;101239.34;5055923;28;20029;-83
2021/08/05 02:36:33;;;;;;;51.10;31.88;;;;;;;12.44;95.24;101238.44;5054692;28;20037;-83
2021/08/05 02:38:59;;;;;;;48.17;29.88;;;;;;;12.42;95.01;101245.44;5054851;28;20040;-86
2021/08/05 02:41:46;;;;;;;46.40;28.50;;;;;;;12.40;94.98;101241.91;5055257;28;20021;-83
2021/08/05 02:44:32;;;;;;;41.42;29.17;;;;;;;12.39;94.69;101244.53;5055170;28;20036;-80
2021/08/05 02:47:21;;;;;;;45.45;29.80;;;;;;;12.36;94.96;101232.16;5054604;28;20043;-80
2021/08/05 02:49:53;;;;;;;47.55;31.17;;;;;;;12.36;95.05;101239.19;5054455;28;20037;-84
2021/08/05 02:52:18;;;;;;;46.50;29.25;;;;;;;12.36;95.19;101239.19;5033617;28;20053;-80
2021/08/05 02:54:44;;;;;;;46.85;28.65;;;;;;;12.32;95.16;101244.41;5034732;28;20083;-81
2021/08/05 02:57:10;;;;;;;42.00;27.00;;;;;;;12.28;94.78;101236.44;5051434;28;20467;-83
2021/08/05 02:59:35;;;;;;;40.80;27.02;;;;;;;12.25;94.50;101225.81;5055166;28;20056;-82
2021/08/05 03:02:23;;;;;;;37.20;26.10;;;;;;;12.23;94.73;101227.56;5054830;28;20017;-79
2021/08/05 03:04:49;;;;;;;41.83;28.05;;;;;;;12.21;94.59;101222.25;5054010;28;20037;-82
2021/08/05 03:07:35;;;;;;;43.47;28.40;;;;;;;12.19;94.84;101226.59;5040421;28;20056;-79
2021/08/05 03:10:26;;;;;;;45.20;29.67;;;;;;;12.18;94.92;101230.13;5034562;28;20028;-82
2021/08/05 03:12:51;;;;;;;41.83;27.77;;;;;;;12.16;95.21;101229.22;5033548;28;20053;-83
2021/08/05 03:15:17;;;;;;;49.30;31.42;;;;;;;12.17;95.26;101228.34;5046728;28;20377;-85
2021/08/05 03:17:42;;;;;;;51.05;30.95;;;;;;;12.16;95.43;101231.84;5054782;28;20064;-82
2021/08/05 03:20:28;;;;;;;49.35;31.92;;;;;;;12.16;95.41;101223.06;5054784;28;20025;-83
2021/08/05 03:22:57;;;;;;;47.67;31.38;;;;;;;12.16;95.37;101230.97;5054743;28;20483;-82
2021/08/05 03:25:42;;;;;;;51.75;31.45;;;;;;;12.14;95.61;101226.53;5056978;28;20033;-77
2021/08/05 03:28:10;;;;;;;49.03;30.70;;;;;;;12.17;95.35;101232.72;5057564;28;20029;-84
2021/08/05 03:30:36;;;;;;;59.35;35.15;;;;;;;12.17;95.49;101227.44;5058230;28;20379;-84
2021/08/05 03:33:21;;;;;;;52.45;33.17;;;;;;;12.18;95.78;101219.59;5058345;28;20021;-88
2021/08/05 03:35:49;;;;;;;57.65;33.92;;;;;;;12.20;95.99;101217.84;5057934;28;20044;-81
2021/08/05 03:38:34;;;;;;;55.88;34.95;;;;;;;12.24;96.09;101224.94;5058034;28;20520;-82
2021/08/05 03:41:04;;;;;;;56.70;34.08;;;;;;;12.25;96.10;101218.81;5057998;28;20036;-81
2021/08/05 03:43:29;;;;;;;62.05;35.47;;;;;;;12.26;95.96;101217.03;5056668;28;20079;-79
2021/08/05 03:45:55;;;;;;;53.42;34.08;;;;;;;12.29;96.21;101217.13;5057542;28;20515;-86
2021/08/05 03:48:41;;;;;;;61.42;36.97;;;;;;;12.33;96.30;101216.28;5057501;28;20048;-85
2021/08/05 03:51:07;;;;;;;60.92;36.33;;;;;;;12.34;96.22;101215.41;5057274;28;20463;-81
2021/08/05 03:53:34;;;;;;;47.72;31.67;;;;;;;12.38;96.35;101206.66;5057220;28;20087;-82
2021/08/05 03:55:59;;;;;;;56.50;34.15;;;;;;;12.39;96.24;101205.81;5057399;28;20036;-82
2021/08/05 03:58:25;;;;;;;54.22;34.75;;;;;;;12.43;96.25;101198.84;5057194;28;20024;-79
2021/08/05 04:00:50;;;;;;;51.17;33.70;;;;;;;12.46;96.27;101199.75;5055553;28;20498;-80
2021/08/05 04:03:19;;;;;;;53.90;33.65;;;;;;;12.50;96.29;101203.34;5056707;28;20025;-79
2021/08/05 04:05:48;;;;;;;50.40;33.17;;;;;;;12.56;96.21;101199.88;5057276;28;20037;-81
2021/08/05 04:08:16;;;;;;;51.40;32.72;;;;;;;12.59;96.26;101195.53;5057273;28;20035;-86
2021/08/05 04:11:24;;;;;;;51.70;32.95;;;;;;;12.65;96.33;101194.75;5057204;28;20113;-82
2021/08/05 04:13:52;;;;;;;48.42;32.78;;;;;;;12.69;96.38;101195.69;5056137;28;20029;-87
2021/08/05 04:16:20;;;;;;;54.50;34.92;;;;;;;12.70;96.26;101193.06;5056788;28;20061;-84
2021/08/05 04:18:48;;;;;;;50.70;33.47;;;;;;;12.74;96.42;101188.72;5057143;28;20025;-85
2021/08/05 04:21:37;;;;;;;57.50;36.03;;;;;;;12.76;96.37;101193.13;5057282;28;20025;-82
2021/08/05 04:24:12;;;;;;;58.22;36.45;;;;;;;12.81;96.42;101194.06;5056630;28;20025;-84
2021/08/05 04:26:40;;;;;;;58.20;35.47;;;;;;;12.84;96.61;101187.06;5053429;28;20029;-81
2021/08/05 04:29:08;;;;;;;56.63;36.20;;;;;;;12.89;96.67;101185.38;5057491;28;20037;-78
2021/08/05 04:31:54;;;;;;;56.50;36.50;;;;;;;12.93;96.76;101185.41;5056249;28;20365;-82
2021/08/05 04:34:30;;;;;;;50.88;35.10;;;;;;;12.97;96.78;101189.00;5056145;28;20104;-83
2021/08/05 04:37:20;;;;;;;50.80;33.95;;;;;;;13.04;96.82;101193.47;5053768;28;20040;-82
2021/08/05 04:39:48;;;;;;;51.85;34.15;;;;;;;13.10;96.53;101190.03;5056487;28;20045;-86
2021/08/05 04:42:22;;;;;;;47.78;32.38;;;;;;;13.15;96.66;101186.56;5056838;28;20071;-82
2021/08/05 04:44:51;;;;;;;44.28;31.85;;;;;;;13.25;96.66;101189.31;5056000;28;20511;-84
2021/08/05 04:47:25;;;;;;;49.40;34.40;;;;;;;13.35;96.72;101188.53;5056701;28;20037;-82
2021/08/05 04:50:14;;;;;;;54.50;35.55;;;;;;;13.44;96.77;101180.75;5056228;28;20025;-84
2021/08/05 04:52:42;;;;;;;50.13;32.80;;;;;;;13.55;96.70;101182.59;5055883;28;20044;-83
2021/08/05 04:55:11;;;;;;;52.63;34.70;;;;;;;13.60;96.64;101189.69;5054202;28;20123;-87
2021/08/05 04:58:25;;;;;;;57.45;38.47;;;;;;;13.72;96.70;101183.66;5055362;28;20518;-81
2021/08/05 05:01:14;;;;;;;52.75;35.17;;;;;;;13.81;96.31;101189.03;5040040;28;20120;-83
2021/08/05 05:03:39;;;;;;;51.97;37.13;;;;;;;13.90;96.34;101188.19;5054921;28;20036;-83
2021/08/05 05:06:08;;;;;;;59.80;39.90;;;;;;;13.97;95.97;101195.34;5055316;28;20082;-86
2021/08/05 05:08:39;;;;;;;57.50;39.47;;;;;;;14.04;96.12;101196.28;5055689;28;20037;-80
2021/08/05 05:11:06;;;;;;;61.42;41.05;;;;;;;14.11;95.78;101191.91;5055317;28;20036;-82
2021/08/05 05:13:57;;;;;;;65.43;42.65;;;;;;;14.14;95.11;101182.22;5055254;28;20039;-82
2021/08/05 05:16:46;;;;;;;62.90;43.60;;;;;;;14.22;94.67;101192.00;5055141;28;20154;-80
2021/08/05 05:19:28;;;;;;;;;;;;;;;;;;;;;
2021/08/05 05:22:06;;;;;;;63.08;42.92;;;;;;;14.32;94.30;101181.47;5054376;28;20056;-82
2021/08/05 05:24:41;;;;;;;63.72;43.67;;;;;;;14.36;94.40;101179.72;5054805;28;20103;-80
2021/08/05 05:27:09;;;;;;;64.47;44.15;;;;;;;14.42;94.54;101182.41;5054954;28;20024;-81
2021/08/05 05:29:50;;;;;;;;;;;;;;;;;;;;;
2021/08/05 05:32:26;;;;;;;68.07;44.75;;;;;;;14.57;94.58;101186.00;5054465;28;20487;-81
2021/08/05 05:35:18;;;;;;;67.22;44.83;;;;;;;14.62;94.41;101186.94;5055161;28;20044;-80
2021/08/05 05:37:49;;;;;;;62.53;43.22;;;;;;;14.64;94.55;101180.81;5054988;28;20045;-81
2021/08/05 05:40:18;;;;;;;60.22;41.85;;;;;;;14.70;94.90;101187.88;5055500;28;20036;-86
2021/08/05 05:42:52;;;;;;;62.03;42.35;;;;;;;14.72;94.53;101179.94;5055286;28;20044;-79
2021/08/05 05:45:44;;;;;;;64.53;44.33;;;;;;;14.76;94.48;101179.97;5055444;28;20048;-82
2021/08/05 05:48:15;;;;;;;53.88;38.92;;;;;;;14.79;93.91;101180.00;5054886;28;20048;-83
2021/08/05 05:50:46;;;;;;;62.90;41.55;;;;;;;14.83;94.20;101173.81;5055577;28;20028;-87
2021/08/05 05:53:12;;;;;;;56.03;41.35;;;;;;;14.88;94.09;101179.16;5054465;28;20036;-84
2021/08/05 05:55:40;;;;;;;56.60;40.35;;;;;;;14.92;93.57;101172.09;5054307;28;20040;-83
2021/08/05 05:58:11;;;;;;;60.42;41.22;;;;;;;14.98;93.26;101167.69;5054339;28;20040;-81
2021/08/05 06:00:37;;;;;;;59.72;41.75;;;;;;;15.00;92.92;101173.00;5054426;28;20025;-83
2021/08/05 06:03:06;;;;;;;64.53;43.30;;;;;;;15.03;93.63;101165.09;5055097;28;20029;-86
2021/08/05 06:05:42;;;;;;;62.15;42.00;;;;;;;15.10;93.98;101171.28;5055076;28;20032;-80
2021/08/05 06:08:28;;;;;;;60.92;43.60;;;;;;;15.14;94.10;101168.63;5054117;28;20051;-80
2021/08/05 06:10:54;;;;;;;63.65;42.38;;;;;;;15.22;93.66;101170.41;5055120;28;20483;-81
2021/08/05 06:14:05;;;;;;;61.22;43.08;;;;;;;15.27;92.67;101166.00;5054021;28;20029;-83
2021/08/05 06:16:37;;;;;;;51.42;39.78;;;;;;;15.33;92.10;101168.69;5054788;28;20116;-80
2021/08/05 06:19:06;;;;;;;56.38;42.35;;;;;;;15.42;91.72;101168.69;5054007;28;20029;-83
2021/08/05 06:21:34;;;;;;;55.17;40.00;;;;;;;15.63;91.73;101174.94;5054626;28;20097;-84
2021/08/05 06:24:20;;;;;;;47.58;36.30;;;;;;;16.08;90.85;101173.19;5054297;28;20463;-80
2021/08/05 06:26:51;;;;;;;40.38;32.47;;;;;;;16.55;87.65;101159.81;5055020;28;20025;-86
2021/08/05 06:29:17;;;;;;;40.50;32.78;;;;;;;16.81;85.84;101152.63;5055362;28;20025;-84
2021/08/05 06:31:45;;;;;;;36.85;32.63;;;;;;;16.94;85.89;101157.91;5070305;28;20040;-78
2021/08/05 06:34:14;;;;;;;37.15;32.22;;;;;;;16.95;85.02;101152.59;5055405;28;20036;-83
2021/08/05 06:36:39;;;;;;;35.63;30.52;;;;;;;17.04;84.69;101154.34;5054330;28;20109;-83
2021/08/05 06:39:05;;;;;;;35.53;29.42;;;;;;;17.09;83.43;101141.00;5054792;28;20057;-84
2021/08/05 06:41:34;;;;;;;37.15;30.40;;;;;;;17.04;84.98;101151.69;5054409;28;20090;-78
2021/08/05 06:44:23;;;;;;;39.70;29.10;;;;;;;17.00;84.89;101149.94;5047173;28;20029;-83
2021/08/05 06:47:19;;;;;;;30.42;26.88;;;;;;;16.96;83.81;101157.03;5055149;28;20082;-83
2021/08/05 06:49:57;;;;;;;34.65;27.83;;;;;;;16.95;84.52;101157.91;5033309;28;20073;-81
2021/08/05 06:52:26;;;;;;;32.40;28.70;;;;;;;17.42;85.23;101155.00;5033674;28;20025;-81
2021/08/05 06:54:55;;;;;;;27.85;24.85;;;;;;;17.99;81.43;101154.59;5033957;28;20036;-84
2021/08/05 06:57:25;;;;;;;27.02;24.15;;;;;;;18.10;80.81;101144.69;5033897;28;20542;-82
2021/08/05 07:00:11;;;;;;;27.15;23.95;;;;;;;18.08;80.22;101146.50;5032858;28;20034;-86
2021/08/05 07:03:05;;;;;;;24.45;21.15;;;;;;;18.03;80.20;101140.34;5036109;28;20029;-84
2021/08/05 07:05:32;;;;;;;29.48;23.48;;;;;;;18.00;80.66;101151.00;5053467;28;20456;-82
2021/08/05 07:08:03;;;;;;;27.30;23.27;;;;;;;18.03;80.96;101149.19;5053209;28;20073;-84
2021/08/05 07:10:46;;;;;;;26.33;23.33;;;;;;;18.11;80.90;101150.91;5052932;28;20025;-84
2021/08/05 07:13:34;;;;;;;27.38;24.48;;;;;;;18.17;81.38;101141.06;5062177;28;20393;-81
2021/08/05 07:16:05;;;;;;;27.88;24.42;;;;;;;18.32;81.10;101149.81;5054400;28;20029;-81
2021/08/05 07:18:36;;;;;;;23.40;20.25;;;;;;;18.52;78.08;101138.94;5052449;28;20033;-82
2021/08/05 07:21:24;;;;;;;25.50;22.80;;;;;;;18.65;79.90;101142.31;5054355;28;20037;-83
2021/08/05 07:23:52;;;;;;;24.15;20.65;;;;;;;18.79;77.54;101134.16;5053614;28;20463;-84
2021/08/05 07:26:39;;;;;;;22.38;19.42;;;;;;;18.87;76.36;101134.94;5053579;28;20055;-79
2021/08/05 07:29:07;;;;;;;21.67;18.02;;;;;;;18.80;75.50;101130.56;5055421;28;20089;-78
2021/08/05 07:31:36;;;;;;;19.98;17.88;;;;;;;18.77;75.80;101126.16;5054377;28;20047;-83
2021/08/05 07:34:04;;;;;;;24.67;19.05;;;;;;;18.80;77.46;101133.25;5052778;28;20399;-78
2021/08/05 07:36:54;;;;;;;24.58;19.48;;;;;;;18.87;76.70;101135.81;5053979;28;20049;-82
2021/08/05 07:39:20;;;;;;;21.75;18.02;;;;;;;18.83;75.21;101123.44;5054293;28;20020;-84
2021/08/05 07:41:46;;;;;;;26.40;19.92;;;;;;;18.83;77.43;101126.09;5052755;28;20383;-81
2021/08/05 07:44:14;;;;;;;23.88;20.65;;;;;;;18.94;77.75;101138.44;5053272;28;20033;-82
2021/08/05 07:46:39;;;;;;;23.55;20.13;;;;;;;19.07;77.18;101126.69;5053782;28;20037;-82
2021/08/05 07:49:05;;;;;;;20.95;18.70;;;;;;;19.25;75.84;101125.56;5053443;28;20025;-83
2021/08/05 07:51:51;;;;;;;17.98;15.93;;;;;;;19.30;72.76;101115.69;5053491;28;20490;-80
2021/08/05 07:54:19;;;;;;;20.13;15.88;;;;;;;19.43;73.37;101113.72;5053844;28;20052;-82
2021/08/05 07:56:44;;;;;;;22.60;15.45;;;;;;;19.55;72.93;101116.19;5054138;28;20033;-83
2021/08/05 07:59:10;;;;;;;20.58;14.95;;;;;;;19.63;72.13;101105.38;5054340;28;20502;-80
2021/08/05 08:01:35;;;;;;;17.60;15.80;;;;;;;19.73;74.37;101116.78;5053162;28;20029;-82
2021/08/05 08:04:01;;;;;;;20.23;14.30;;;;;;;19.77;70.28;101105.13;5052377;28;20021;-80
2021/08/05 08:06:27;;;;;;;14.07;11.07;;;;;;;19.72;68.97;101101.66;5053343;28;20384;-82
2021/08/05 08:08:53;;;;;;;14.13;12.05;;;;;;;19.82;70.73;101110.44;5052469;28;20059;-79
2021/08/05 08:11:38;;;;;;;16.55;13.32;;;;;;;19.95;72.30;101117.31;5052909;28;20025;-80
2021/08/05 08:14:04;;;;;;;15.27;12.05;;;;;;;20.08;70.13;101107.28;5036725;28;20239;-81
2021/08/05 08:16:30;;;;;;;20.70;13.60;;;;;;;20.21;69.71;101105.25;5038517;28;20559;-83
2021/08/05 08:18:55;;;;;;;17.17;13.05;;;;;;;20.27;70.70;101110.47;5055599;28;20028;-81
2021/08/05 08:21:40;;;;;;;13.75;12.35;;;;;;;20.44;67.67;101103.91;5055942;28;20017;-79
2021/08/05 08:24:09;;;;;;;15.13;11.98;;;;;;;20.45;67.66;101103.88;5055831;28;20033;-83
2021/08/05 08:26:55;;;;;;;15.90;11.88;;;;;;;20.57;70.28;101117.94;5055957;28;20031;-80
2021/08/05 08:29:21;;;;;;;15.50;12.88;;;;;;;20.73;66.76;101103.34;5055357;28;20029;-81
2021/08/05 08:31:48;;;;;;;16.05;12.60;;;;;;;20.66;68.00;101123.97;5056710;28;20036;-82
2021/08/05 08:34:33;;;;;;;16.10;13.20;;;;;;;20.61;68.56;101124.97;5056086;28;20025;-79
2021/08/05 08:36:59;;;;;;;15.32;13.30;;;;;;;20.66;64.79;101099.91;5054997;28;20056;-83
2021/08/05 08:39:24;;;;;;;15.30;12.95;;;;;;;20.89;65.74;101104.78;5055978;28;20025;-81
2021/08/05 08:41:51;;;;;;;14.05;11.57;;;;;;;21.37;64.82;101108.16;5056032;28;20093;-81
2021/08/05 08:44:17;;;;;;;16.52;11.65;;;;;;;21.85;63.06;101093.56;5056021;28;20033;-81
2021/08/05 08:47:05;;;;;;;11.73;10.52;;;;;;;22.28;59.75;101083.50;5056681;28;20035;-85
2021/08/05 08:50:11;;;;;;;12.82;10.73;;;;;;;22.43;58.28;101072.34;5056486;28;20048;-81
2021/08/05 08:52:40;;;;;;;11.55;10.38;;;;;;;22.31;59.34;101080.72;5056334;28;20104;-80
2021/08/05 08:55:08;;;;;;;12.27;10.98;;;;;;;22.46;61.52;101096.38;5056540;28;20506;-79
2021/08/05 08:57:36;;;;;;;14.23;10.60;;;;;;;22.44;61.55;101092.88;5056616;28;20048;-83
2021/08/05 09:00:04;;;;;;;11.23;9.85;;;;;;;22.52;54.87;101052.44;5056350;28;20442;-85
2021/08/05 09:02:52;;;;;;;14.02;10.55;;;;;;;22.62;58.34;101077.16;5036309;28;20033;-81
2021/08/05 09:05:19;;;;;;;10.65;8.73;;;;;;;22.74;55.30;101055.34;5036503;28;20029;-81
2021/08/05 09:07:47;;;;;;;14.38;10.43;;;;;;;23.05;55.74;101051.69;5035644;28;20025;-81
2021/08/05 09:10:13;;;;;;;11.05;9.57;;;;;;;23.48;54.68;101046.72;5035757;28;20034;-79
2021/08/05 09:13:27;;;;;;;12.48;10.13;;;;;;;24.03;54.55;101043.94;5045334;28;20016;-83
2021/08/05 09:15:53;;;;;;;15.38;12.55;;;;;;;24.24;52.60;101037.75;5055828;28;20536;-80
2021/08/05 09:18:35;;;;;;;12.32;10.38;;;;;;;24.34;52.61;101023.97;5054170;28;20025;-81
2021/08/05 09:21:14;;;;;;;13.43;11.43;;;;;;;24.54;50.81;101017.81;5054953;28;20044;-80
2021/08/05 09:24:35;;;;;;;17.10;10.85;;;;;;;24.58;51.75;101014.94;5054810;28;20074;-81
2021/08/05 09:27:10;;;;;;;13.27;10.23;;;;;;;24.92;51.04;101010.94;5055400;28;20029;-84
2021/08/05 09:30:02;;;;;;;12.23;10.50;;;;;;;24.89;52.59;101015.56;5054918;28;20032;-81
2021/08/05 09:32:47;;;;;;;14.70;11.60;;;;;;;25.05;49.74;100994.25;5055859;28;20044;-86
2021/08/05 09:35:13;;;;;;;13.07;11.45;;;;;;;25.04;51.55;101006.88;5055263;28;20044;-84
2021/08/05 09:38:17;;;;;;;14.75;12.15;;;;;;;25.27;47.62;100980.75;5087709;28;20055;-84
2021/08/05 09:40:45;;;;;;;14.45;10.57;;;;;;;25.51;50.17;101003.09;5055320;28;20036;-80
2021/08/05 09:43:31;;;;;;;13.52;11.27;;;;;;;25.33;48.70;100985.03;5055196;28;20028;-81
2021/08/05 09:45:57;;;;;;;16.08;11.98;;;;;;;25.80;45.52;100976.72;5055777;28;20036;-80
2021/08/05 09:48:51;;;;;;;11.80;10.52;;;;;;;26.13;44.86;100973.44;5055690;28;20025;-81
2021/08/05 09:51:22;;;;;;;12.68;10.38;;;;;;;26.24;44.05;100964.84;5056023;28;20036;-81
2021/08/05 09:54:14;;;;;;;12.57;10.43;;;;;;;26.53;46.38;100973.34;5055899;28;20035;-84
2021/08/05 09:56:52;;;;;;;13.68;9.55;;;;;;;26.50;44.73;100963.56;5055196;28;20041;-84
2021/08/05 09:59:54;;;;;;;10.90;9.65;;;;;;;26.62;44.87;100972.91;5054866;28;20033;-85
2021/08/05 10:02:45;;;;;;;10.48;8.43;;;;;;;27.05;43.12;100959.16;5055092;28;20017;-84
2021/08/05 10:05:34;;;;;;;13.93;9.75;;;;;;;27.49;41.26;100941.59;5053780;28;20125;-83
2021/08/05 10:08:39;;;;;;;11.43;9.23;;;;;;;27.98;39.79;100944.34;5053096;28;20024;-85
2021/08/05 10:11:06;;;;;;;11.40;10.20;;;;;;;28.68;41.01;100948.66;5054574;28;20099;-86
2021/08/05 10:13:52;;;;;;;8.90;7.95;;;;;;;28.99;38.78;100949.53;5056337;28;20044;-83
2021/08/05 10:16:57;;;;;;;7.90;6.88;;;;;;;29.54;38.56;100943.50;5054587;28;20025;-82
2021/08/05 10:19:38;;;;;;;8.95;8.00;;;;;;;30.11;36.54;100939.09;5054300;28;20036;-84
2021/08/05 10:22:06;;;;;;;12.40;9.43;;;;;;;30.34;34.07;100923.16;5054700;28;20048;-82
2021/08/05 10:24:54;;;;;;;10.70;9.38;;;;;;;30.19;34.04;100922.31;5054738;28;20098;-83
2021/08/05 10:27:43;;;;;;;10.35;9.35;;;;;;;29.82;35.70;100919.22;5053052;28;20455;-82
2021/08/05 10:30:36;;;;;;;9.45;8.55;;;;;;;29.19;33.50;100922.13;5053574;28;20043;-84
2021/08/05 10:33:27;;;;;;;11.68;8.35;;;;;;;29.60;36.26;100932.28;5054773;28;20024;-85
2021/08/05 10:36:19;;;;;;;15.32;9.00;;;;;;;28.79;35.23;100912.81;5053782;28;20048;-85
2021/08/05 10:38:58;;;;;;;10.57;9.48;;;;;;;29.73;36.58;100921.53;5054438;28;20072;-85
2021/08/05 10:41:28;;;;;;;11.45;9.30;;;;;;;29.93;34.97;100916.72;5056495;28;20029;-79
2021/08/05 10:44:37;;;;;;;9.88;8.95;;;;;;;29.65;36.13;100910.28;5056414;28;20048;-85
2021/08/05 10:47:05;;;;;;;8.63;7.07;;;;;;;29.35;36.50;100905.81;5053806;28;20396;-81
2021/08/05 10:49:53;;;;;;;9.23;8.27;;;;;;;29.20;35.38;100907.59;5054758;28;20021;-81
2021/08/05 10:52:41;;;;;;;12.52;8.95;;;;;;;29.27;33.77;100884.63;5054343;28;20048;-83
2021/08/05 10:55:15;;;;;;;9.63;8.18;;;;;;;28.58;35.56;100897.69;5054511;28;20025;-84
2021/08/05 10:57:42;;;;;;;13.50;8.15;;;;;;;28.21;37.41;100905.22;5054654;28;20058;-85
2021/08/05 11:00:14;;;;;;;9.32;7.35;;;;;;;28.69;39.07;100904.34;5054630;28;20029;-80
2021/08/05 11:02:51;;;;;;;8.38;7.47;;;;;;;29.61;36.05;100895.19;5054199;28;20033;-82
2021/08/05 11:05:23;;;;;;;9.70;8.73;;;;;;;29.88;36.45;100886.31;5054052;28;20025;-83
2021/08/05 11:08:09;;;;;;;13.00;10.95;;;;;;;29.88;33.04;100873.59;5054300;28;20033;-84
2021/08/05 11:11:20;;;;;;;11.27;9.75;;;;;;;29.40;36.48;100887.44;5054751;28;20025;-87
2021/08/05 11:14:06;;;;;;;16.13;10.13;;;;;;;29.69;35.08;100873.88;5055264;28;20025;-83
2021/08/05 11:16:56;;;;;;;10.75;9.63;;;;;;;28.72;35.76;100874.38;5052112;28;20033;-81
2021/08/05 11:19:41;;;;;;;;;;;;;;;;;;;;;
2021/08/05 11:26:01;;;;;;;;;;;;;;;;;;;;;
2021/08/05 11:36:10;;;;;;;8.85;7.90;;;;;;;31.18;31.59;100840.53;5036255;28;20104;-83
2021/08/05 11:39:20;;;;;;;14.55;7.22;;;;;;;31.29;32.21;100837.06;5035391;28;20041;-80
2021/08/05 11:42:18;;;;;;;8.05;6.53;;;;;;;31.34;35.15;100843.03;5036538;28;20388;-87
2021/08/05 11:48:10;;;;;;;8.55;6.30;;;;;;;31.79;34.98;100831.69;5038323;28;20034;-82
2021/08/05 11:58:28;;;;;;;9.38;8.15;;;;;;;29.72;34.55;100814.03;5017412;28;20037;-81
2021/08/05 12:01:20;;;;;;;10.73;8.73;;;;;;;28.42;36.85;100815.66;5014954;28;20037;-83
2021/08/05 12:04:28;;;;;;;11.07;9.93;;;;;;;26.81;39.46;100820.84;5013790;28;20088;-85
2021/08/05 12:07:29;;;;;;;12.00;10.70;;;;;;;26.03;43.23;100827.38;5016368;28;20034;-84
2021/08/05 12:09:58;;;;;;;11.80;10.25;;;;;;;26.08;44.50;100833.38;5024287;28;20041;-83
2021/08/05 12:12:34;;;;;;;11.40;10.27;;;;;;;26.15;43.40;100831.28;5036649;28;20527;-83
2021/08/05 12:15:25;;;;;;;13.63;11.80;;;;;;;25.64;43.66;100827.41;5036263;28;20041;-83
2021/08/05 12:18:21;;;;;;;12.05;10.85;;;;;;;25.32;46.19;100832.44;5036066;28;20041;-86
2021/08/05 12:21:18;;;;;;;18.20;11.23;;;;;;;25.04;47.24;100839.03;5036529;28;20083;-80
2021/08/05 12:23:57;;;;;;;12.98;11.57;;;;;;;25.61;43.79;100830.25;5036164;28;20113;-82